createdAt,value
2023-11-30T08:58:02.867Z,1287.00
2023-11-30T08:59:03.857Z,1284.00
2023-11-30T09:00:03.929Z,1295.00
2023-11-30T09:01:03.834Z,1308.00
2023-11-30T09:02:03.945Z,1245.00
2023-11-30T09:03:03.932Z,1266.00
2023-11-30T09:04:03.819Z,1282.00
2023-11-30T09:05:03.821Z,1265.00
2023-11-30T09:06:03.845Z,1344.00
2023-11-30T09:07:03.756Z,1344.00
2023-11-30T09:08:03.771Z,1369.00
2023-11-30T09:09:03.819Z,1366.00
2023-11-30T09:10:03.742Z,1386.00
2023-11-30T09:11:03.716Z,1416.00
2023-11-30T09:12:03.878Z,1422.00
2023-11-30T09:13:03.703Z,1462.00
2023-11-30T09:14:03.743Z,1458.00
2023-11-30T09:15:03.712Z,1499.00
2023-11-30T09:16:03.706Z,1461.00
2023-11-30T09:17:03.666Z,1525.00
2023-11-30T09:18:03.738Z,1461.00
2023-11-30T09:19:03.682Z,1430.00
2023-11-30T09:20:03.644Z,1446.00
2023-11-30T09:21:03.634Z,1380.00
2023-11-30T09:22:03.639Z,1374.00
2023-11-30T09:23:03.625Z,1418.00
2023-11-30T09:24:03.660Z,1419.00
2023-11-30T09:25:03.657Z,1456.00
2023-11-30T09:26:03.643Z,1557.00
2023-11-30T09:27:03.581Z,1545.00
2023-11-30T09:28:03.678Z,1605.00
2023-11-30T09:29:03.689Z,1541.00
2023-11-30T09:30:03.568Z,1470.00
2023-11-30T09:31:03.605Z,1445.00
2023-11-30T09:32:03.507Z,1402.00
2023-11-30T09:33:03.656Z,1419.00
2023-11-30T09:34:03.483Z,1418.00
2023-11-30T09:35:03.504Z,1387.00
2023-11-30T09:36:03.462Z,1365.00
2023-11-30T09:37:03.449Z,1376.00
2023-11-30T09:38:03.471Z,1379.00
2023-11-30T09:39:03.462Z,1382.00
2023-11-30T09:40:03.412Z,1424.00
2023-11-30T09:41:04.334Z,1441.00
2023-11-30T09:42:03.476Z,1431.00
2023-11-30T09:43:03.396Z,1456.00
2023-11-30T09:44:03.419Z,1449.00
2023-11-30T09:45:03.499Z,1435.00
2023-11-30T09:46:03.453Z,1437.00
2023-11-30T09:47:03.377Z,1450.00
2023-11-30T09:48:03.404Z,1480.00
2023-11-30T09:49:03.316Z,1502.00
2023-11-30T09:50:03.344Z,1513.00
2023-11-30T09:51:03.443Z,1427.00
2023-11-30T09:52:03.315Z,1401.00
2023-11-30T09:53:03.276Z,1389.00
2023-11-30T09:54:03.292Z,1415.00
2023-11-30T09:55:03.261Z,1440.00
2023-11-30T09:56:03.263Z,1420.00
2023-11-30T09:57:03.246Z,1424.00
2023-11-30T09:58:03.233Z,1367.00
2023-11-30T09:59:03.255Z,1376.00
2023-11-30T10:00:03.218Z,1374.00
2023-11-30T10:01:03.344Z,1336.00
2023-11-30T10:02:05.560Z,1293.00
2023-11-30T10:03:03.212Z,1240.00
2023-11-30T10:04:03.278Z,1222.00
2023-11-30T10:05:03.153Z,1186.00
2023-11-30T10:06:03.155Z,1174.00
2023-11-30T10:07:03.134Z,1160.00
2023-11-30T10:08:03.141Z,1121.00
2023-11-30T10:09:03.328Z,1111.00
2023-11-30T10:10:03.107Z,1120.00
2023-11-30T10:11:03.104Z,1109.00
2023-11-30T10:12:03.157Z,1173.00
2023-11-30T10:13:03.131Z,1303.00
2023-11-30T10:14:03.179Z,1334.00
2023-11-30T10:15:03.074Z,1350.00
2023-11-30T10:16:03.116Z,1417.00
2023-11-30T10:17:03.170Z,1475.00
2023-11-30T10:18:03.306Z,1525.00
2023-11-30T10:19:05.400Z,1576.00
2023-11-30T10:20:03.099Z,1626.00
2023-11-30T10:21:03.014Z,1619.00
2023-11-30T10:22:02.985Z,1728.00
2023-11-30T10:23:02.975Z,1846.00
2023-11-30T10:24:03.021Z,1864.00
2023-11-30T10:25:02.960Z,1893.00
2023-11-30T10:26:02.940Z,1824.00
2023-11-30T10:27:02.916Z,1720.00
2023-11-30T10:28:02.902Z,1645.00
2023-11-30T10:29:02.915Z,1632.00
2023-11-30T10:30:02.949Z,1651.00
2023-11-30T10:31:02.923Z,1643.00
2023-11-30T10:32:02.877Z,1645.00
2023-11-30T10:33:03.453Z,1689.00
2023-11-30T10:34:02.969Z,1655.00
2023-11-30T10:35:02.901Z,1627.00
2023-11-30T10:36:02.900Z,1623.00
2023-11-30T10:37:04.352Z,1585.00
2023-11-30T10:38:02.828Z,1616.00
2023-11-30T10:39:02.830Z,1655.00
2023-11-30T10:40:02.802Z,1585.00
2023-11-30T10:41:02.785Z,1500.00
2023-11-30T10:42:02.783Z,1411.00
2023-11-30T10:43:03.568Z,1429.00
2023-11-30T10:44:02.750Z,1427.00
2023-11-30T10:45:02.754Z,1465.00
2023-11-30T10:46:02.767Z,1448.00
2023-11-30T10:47:02.757Z,1390.00
2023-11-30T10:48:02.757Z,1302.00
2023-11-30T10:49:02.753Z,1221.00
2023-11-30T10:50:02.698Z,1121.00
2023-11-30T10:51:02.670Z,1110.00
2023-11-30T10:52:04.009Z,1003.00
2023-11-30T10:53:02.657Z,955.00
2023-11-30T10:54:02.652Z,941.00
2023-11-30T10:55:02.625Z,909.00
2023-11-30T10:56:02.646Z,982.00
2023-11-30T10:57:02.633Z,1065.00
2023-11-30T10:58:02.621Z,1045.00
2023-11-30T10:59:02.604Z,1113.00
2023-11-30T11:00:02.599Z,1182.00
2023-11-30T11:01:02.630Z,1180.00
2023-11-30T11:02:02.710Z,1109.00
2023-11-30T11:03:02.626Z,1189.00
2023-11-30T11:04:02.605Z,1237.00
2023-11-30T11:05:02.535Z,1182.00
2023-11-30T11:06:02.542Z,1272.00
2023-11-30T11:07:02.511Z,1356.00
2023-11-30T11:08:02.508Z,1270.00
2023-11-30T11:09:02.533Z,1171.00
2023-11-30T11:10:03.551Z,1091.00
2023-11-30T11:11:02.504Z,1185.00
2023-11-30T11:12:02.486Z,1228.00
2023-11-30T11:13:02.462Z,1278.00
2023-11-30T11:14:02.476Z,1214.00
2023-11-30T11:15:02.450Z,1070.00
2023-11-30T11:16:02.551Z,991.00
2023-11-30T11:17:02.418Z,919.00
2023-11-30T11:18:02.451Z,928.00
2023-11-30T11:19:02.388Z,841.00
2023-11-30T11:20:02.401Z,772.00
2023-11-30T11:21:02.390Z,824.00
2023-11-30T11:22:02.366Z,868.00
2023-11-30T11:23:02.375Z,848.00
2023-11-30T11:24:02.369Z,772.00
2023-11-30T11:25:02.346Z,726.00
2023-11-30T11:26:02.340Z,653.00
2023-11-30T11:27:02.300Z,706.00
2023-11-30T11:28:02.333Z,767.00
2023-11-30T11:29:02.291Z,881.00
2023-11-30T11:30:02.290Z,944.00
2023-11-30T11:31:02.296Z,886.00
2023-11-30T11:32:02.284Z,897.00
2023-11-30T11:33:02.255Z,1003.00
2023-11-30T11:34:02.262Z,1024.00
2023-11-30T11:35:02.248Z,1088.00
2023-11-30T11:36:02.231Z,1130.00
2023-11-30T11:37:02.216Z,1186.00
2023-11-30T11:38:02.208Z,1113.00
2023-11-30T11:39:02.227Z,1201.00
2023-11-30T11:40:02.173Z,1211.00
2023-11-30T11:41:02.185Z,1179.00
2023-11-30T11:42:02.173Z,1244.00
2023-11-30T11:43:02.171Z,1282.00
2023-11-30T11:44:02.166Z,1277.00
2023-11-30T11:45:02.153Z,1277.00
2023-11-30T11:46:02.249Z,1187.00
2023-11-30T11:47:02.103Z,1141.00
2023-11-30T11:48:02.143Z,1082.00
2023-11-30T11:49:02.106Z,1051.00
2023-11-30T11:50:02.100Z,1056.00
2023-11-30T11:51:02.076Z,1123.00
2023-11-30T11:52:02.056Z,1210.00
2023-11-30T11:53:02.120Z,1285.00
2023-11-30T11:54:02.032Z,1340.00
2023-11-30T11:55:02.024Z,1385.00
2023-11-30T11:56:02.007Z,1412.00
2023-11-30T11:57:02.039Z,1390.00
2023-11-30T11:58:02.105Z,1367.00
2023-11-30T11:59:01.974Z,1317.00
2023-11-30T12:00:01.987Z,1264.00
2023-11-30T12:01:02.062Z,1221.00
2023-11-30T12:02:02.054Z,1204.00
2023-11-30T12:03:01.954Z,1109.00
2023-11-30T12:04:02.073Z,1031.00
2023-11-30T12:05:01.930Z,987.00
2023-11-30T12:06:01.902Z,971.00
2023-11-30T12:07:01.917Z,926.00
2023-11-30T12:08:01.900Z,814.00
2023-11-30T12:09:01.876Z,725.00
2023-11-30T12:10:01.967Z,717.00
2023-11-30T12:11:01.864Z,987.00
2023-11-30T12:12:01.859Z,1229.00
2023-11-30T12:13:01.846Z,1158.00
2023-11-30T12:14:01.833Z,1114.00
2023-11-30T12:15:01.805Z,1164.00
2023-11-30T12:16:01.871Z,1099.00
2023-11-30T12:17:01.834Z,985.00
2023-11-30T12:18:01.811Z,925.00
2023-11-30T12:19:01.846Z,879.00
2023-11-30T12:20:01.781Z,842.00
2023-11-30T12:21:01.761Z,842.00
2023-11-30T12:22:01.746Z,761.00
2023-11-30T12:23:01.739Z,636.00
2023-11-30T12:24:01.707Z,742.00
2023-11-30T12:25:01.752Z,982.00
2023-11-30T12:26:01.739Z,834.00
2023-11-30T12:27:01.705Z,642.00
2023-11-30T12:28:01.737Z,785.00
2023-11-30T12:29:01.664Z,913.00
2023-11-30T12:30:01.675Z,989.00
2023-11-30T12:31:01.659Z,988.00
2023-11-30T12:32:01.666Z,984.00
2023-11-30T12:33:01.712Z,1019.00
2023-11-30T12:34:01.678Z,1070.00
2023-11-30T12:35:01.622Z,1194.00
2023-11-30T12:36:01.612Z,1432.00
2023-11-30T12:37:01.621Z,1500.00
2023-11-30T12:38:01.572Z,1541.00
2023-11-30T12:39:01.592Z,1575.00
2023-11-30T12:40:01.615Z,1594.00
2023-11-30T12:41:01.558Z,1608.00
2023-11-30T12:42:03.562Z,1491.00
2023-11-30T12:43:01.540Z,1386.00
2023-11-30T12:44:03.010Z,1307.00
2023-11-30T12:45:01.518Z,1201.00
2023-11-30T12:46:01.523Z,1104.00
2023-11-30T12:47:01.482Z,1085.00
2023-11-30T12:48:01.516Z,1041.00
2023-11-30T12:49:01.513Z,1096.00
2023-11-30T12:50:01.498Z,1161.00
2023-11-30T12:51:01.452Z,1168.00
2023-11-30T12:52:01.428Z,1159.00
2023-11-30T12:53:01.428Z,1154.00
2023-11-30T12:54:01.430Z,1111.00
2023-11-30T12:55:01.689Z,1050.00
2023-11-30T12:56:01.375Z,1025.00
2023-11-30T12:57:01.377Z,1078.00
2023-11-30T12:58:01.377Z,1068.00
2023-11-30T12:59:01.397Z,1020.00
2023-11-30T13:00:01.350Z,1002.00
2023-11-30T13:01:01.358Z,926.00
2023-11-30T13:02:01.429Z,890.00
2023-11-30T13:03:01.405Z,824.00
2023-11-30T13:04:01.405Z,787.00
2023-11-30T13:05:01.391Z,810.00
2023-11-30T13:06:01.303Z,819.00
2023-11-30T13:07:01.292Z,781.00
2023-11-30T13:08:01.309Z,805.00
2023-11-30T13:09:01.314Z,775.00
2023-11-30T13:10:01.284Z,787.00
2023-11-30T13:11:01.226Z,799.00
2023-11-30T13:12:01.294Z,862.00
2023-11-30T13:13:01.273Z,911.00
2023-11-30T13:14:01.248Z,918.00
2023-11-30T13:15:01.230Z,864.00
2023-11-30T13:16:01.160Z,836.00
2023-11-30T13:17:01.303Z,801.00
2023-11-30T13:18:01.256Z,747.00
2023-11-30T13:19:01.255Z,709.00
2023-11-30T13:20:01.149Z,663.00
2023-11-30T13:21:01.114Z,636.00
2023-11-30T13:22:01.106Z,624.00
2023-11-30T13:23:01.096Z,606.00
2023-11-30T13:24:01.076Z,567.00
2023-11-30T13:25:01.072Z,548.00
2023-11-30T13:26:01.072Z,551.00
2023-11-30T13:27:01.088Z,503.00
2023-11-30T13:28:01.069Z,468.00
2023-11-30T13:29:01.053Z,456.00
2023-11-30T13:30:01.103Z,477.00
2023-11-30T13:31:01.102Z,433.00
2023-11-30T13:32:01.100Z,377.00
2023-11-30T13:33:01.061Z,322.00
2023-11-30T13:34:01.001Z,283.00
2023-11-30T13:35:01.012Z,319.00
2023-11-30T13:36:01.001Z,402.00
2023-11-30T13:37:00.970Z,404.00
2023-11-30T13:38:00.968Z,352.00
2023-11-30T13:39:01.002Z,309.00
2023-11-30T13:40:00.934Z,291.00
2023-11-30T13:41:00.914Z,269.00
2023-11-30T13:42:00.931Z,267.00
2023-11-30T13:43:00.900Z,298.00
2023-11-30T13:44:00.877Z,357.00
2023-11-30T13:45:00.895Z,398.00
2023-11-30T13:46:00.871Z,477.00
2023-11-30T13:47:00.857Z,485.00
2023-11-30T13:48:00.889Z,473.00
2023-11-30T13:49:00.881Z,482.00
2023-11-30T13:50:00.834Z,489.00
2023-11-30T13:51:03.333Z,458.00
2023-11-30T13:52:00.859Z,434.00
2023-11-30T13:53:00.893Z,448.00
2023-11-30T13:54:00.837Z,465.00
2023-11-30T13:55:00.774Z,481.00
2023-11-30T13:56:00.765Z,499.00
2023-11-30T13:57:00.751Z,483.00
2023-11-30T13:58:00.739Z,467.00
2023-11-30T13:59:00.747Z,467.00
2023-11-30T14:00:00.715Z,443.00
2023-11-30T14:01:00.776Z,410.00
2023-11-30T14:02:00.779Z,377.00
2023-11-30T14:03:00.743Z,352.00
2023-11-30T14:04:00.737Z,353.00
2023-11-30T14:05:00.679Z,347.00
2023-11-30T14:06:00.661Z,353.00
2023-11-30T14:07:00.722Z,353.00
2023-11-30T14:08:00.661Z,309.00
2023-11-30T14:09:00.692Z,280.00
2023-11-30T14:10:00.626Z,268.00
2023-11-30T14:11:00.611Z,266.00
2023-11-30T14:12:00.596Z,269.00
2023-11-30T14:13:00.609Z,266.00
2023-11-30T14:14:00.591Z,259.00
2023-11-30T14:15:00.671Z,249.00
2023-11-30T14:16:00.569Z,242.00
2023-11-30T14:17:00.621Z,239.00
2023-11-30T14:18:00.605Z,245.00
2023-11-30T14:19:00.548Z,245.00
2023-11-30T14:20:00.586Z,232.00
2023-11-30T14:21:00.491Z,203.00
2023-11-30T14:22:00.552Z,179.00
2023-11-30T14:23:00.484Z,171.00
2023-11-30T14:24:00.479Z,170.00
2023-11-30T14:25:00.510Z,184.00
2023-11-30T14:26:00.462Z,202.00
2023-11-30T14:27:00.453Z,221.00
2023-11-30T14:28:05.195Z,226.00
2023-11-30T14:29:00.505Z,225.00
2023-11-30T14:30:00.407Z,243.00
2023-11-30T14:31:00.558Z,252.00
2023-11-30T14:32:00.424Z,234.00
2023-11-30T14:33:00.423Z,218.00
2023-11-30T14:34:00.473Z,215.00
2023-11-30T14:35:00.406Z,221.00
2023-11-30T14:36:00.386Z,236.00
2023-11-30T14:37:00.324Z,244.00
2023-11-30T14:38:00.492Z,254.00
2023-11-30T14:39:00.355Z,259.00
2023-11-30T14:40:00.380Z,269.00
2023-11-30T14:41:00.374Z,278.00
2023-11-30T14:42:00.332Z,271.00
2023-11-30T14:43:00.464Z,253.00
2023-11-30T14:44:00.308Z,255.00
2023-11-30T14:45:00.263Z,259.00
2023-11-30T14:46:00.429Z,266.00
2023-11-30T14:47:00.331Z,254.00
2023-11-30T14:48:00.277Z,223.00
2023-11-30T14:49:00.288Z,186.00
2023-11-30T14:50:00.334Z,168.00
2023-11-30T14:51:00.264Z,160.00
2023-11-30T14:52:00.252Z,150.00
2023-11-30T14:53:00.340Z,138.00
2023-11-30T14:54:00.235Z,147.00
2023-11-30T14:55:00.381Z,131.00
2023-11-30T14:56:00.230Z,110.00
2023-11-30T14:57:00.275Z,100.00
2023-11-30T14:58:00.312Z,114.00
2023-11-30T14:59:00.206Z,130.00
2023-11-30T15:00:00.223Z,131.00
2023-11-30T15:01:00.281Z,126.00
2023-11-30T15:02:00.330Z,117.00
2023-11-30T15:03:00.207Z,113.00
2023-11-30T15:04:00.224Z,110.00
2023-11-30T15:05:00.172Z,105.00
2023-11-30T15:06:00.128Z,100.00
2023-11-30T15:07:00.224Z,93.00
2023-11-30T15:08:00.091Z,85.00
2023-11-30T15:09:00.331Z,82.00
2023-11-30T15:09:59.996Z,77.00
2023-11-30T15:11:00.097Z,70.00
2023-11-30T15:12:00.001Z,66.00
2023-11-30T15:13:00.026Z,60.00
2023-11-30T15:13:59.985Z,53.00
2023-11-30T15:15:00.031Z,48.00
2023-11-30T15:15:59.985Z,43.00
2023-11-30T15:16:59.942Z,41.00
2023-11-30T15:17:59.966Z,40.00
2023-11-30T15:18:59.986Z,41.00
2023-11-30T15:20:00.004Z,40.00
2023-11-30T15:21:00.525Z,38.00
2023-11-30T15:21:59.957Z,32.00
2023-11-30T15:22:59.905Z,29.00
2023-11-30T15:23:59.873Z,24.00
2023-11-30T15:24:59.853Z,20.00
2023-11-30T15:25:59.821Z,19.00
2023-11-30T15:26:59.884Z,15.00
2023-11-30T15:27:59.854Z,16.00
2023-11-30T15:28:59.868Z,15.00
2023-11-30T15:29:59.782Z,17.00
2023-11-30T15:30:59.929Z,15.00
2023-11-30T15:31:59.779Z,15.00
2023-11-30T15:32:59.836Z,12.00
2023-11-30T15:33:59.917Z,11.00
2023-11-30T15:34:59.727Z,9.00
2023-11-30T15:35:59.752Z,8.00
2023-11-30T15:36:59.754Z,7.00
2023-11-30T15:37:59.792Z,8.00
2023-11-30T15:38:59.736Z,4.00
2023-11-30T15:39:59.687Z,5.00
2023-11-30T15:40:59.669Z,5.00
2023-11-30T15:41:59.662Z,4.00
2023-11-30T15:42:59.711Z,5.00
2023-11-30T15:43:59.687Z,3.00
2023-11-30T15:44:59.636Z,3.00
2023-11-30T15:45:59.665Z,3.00
2023-11-30T15:46:59.853Z,3.00
2023-11-30T15:47:59.665Z,2.00
2023-11-30T15:48:59.714Z,2.00
2023-11-30T15:49:59.685Z,2.00
2023-11-30T15:50:59.609Z,2.00
2023-11-30T15:51:59.570Z,2.00
2023-11-30T15:52:59.588Z,1.00
2023-11-30T15:53:59.589Z,4.00
2023-11-30T15:54:59.571Z,2.00
2023-11-30T15:55:59.690Z,0.00
2023-11-30T15:56:59.598Z,2.00
2023-11-30T15:57:59.528Z,1.00
2023-11-30T15:58:59.502Z,1.00
2023-11-30T15:59:59.531Z,1.00
2023-11-30T16:00:59.514Z,1.00
2023-11-30T16:01:59.596Z,1.00
2023-11-30T16:02:59.661Z,0.00
2023-11-30T16:03:59.757Z,1.00
2023-11-30T16:04:59.452Z,1.00
2023-11-30T16:05:59.471Z,0.00
2023-11-30T16:06:59.474Z,1.00
2023-11-30T16:07:59.380Z,1.00
2023-11-30T16:08:59.494Z,0.00
2023-11-30T16:09:59.409Z,1.00
2023-11-30T16:10:59.409Z,0.00
2023-11-30T16:11:59.417Z,0.00
2023-11-30T16:12:59.390Z,1.00
2023-11-30T16:13:59.741Z,1.00
2023-11-30T16:14:59.390Z,0.00
2023-11-30T16:15:59.327Z,2.00
2023-11-30T16:16:59.331Z,1.00
2023-11-30T16:17:59.383Z,0.00
2023-11-30T16:18:59.410Z,0.00
2023-11-30T16:19:59.316Z,0.00
2023-11-30T16:20:59.298Z,0.00
2023-11-30T16:21:59.305Z,1.00
2023-11-30T16:22:59.291Z,0.00
2023-11-30T16:23:59.361Z,0.00
2023-11-30T16:24:59.463Z,0.00
2023-11-30T16:25:59.203Z,1.00
2023-11-30T16:26:59.383Z,0.00
2023-11-30T16:27:59.345Z,0.00
2023-11-30T16:28:59.218Z,1.00
2023-11-30T16:29:59.187Z,2.00
2023-11-30T16:30:59.230Z,0.00
2023-11-30T16:31:59.309Z,0.00
2023-11-30T16:32:59.245Z,0.00
2023-11-30T16:33:59.245Z,1.00
2023-11-30T16:34:59.219Z,0.00
2023-11-30T16:35:59.269Z,0.00
2023-11-30T16:36:59.151Z,0.00
2023-11-30T16:37:59.121Z,2.00
2023-11-30T16:38:59.077Z,1.00
2023-11-30T16:39:59.274Z,0.00
2023-11-30T16:40:59.126Z,0.00
2023-11-30T16:41:59.105Z,0.00
2023-11-30T16:42:59.107Z,0.00
2023-11-30T16:43:59.120Z,0.00
2023-11-30T16:44:59.064Z,0.00
2023-11-30T16:45:59.250Z,0.00
2023-11-30T16:46:59.120Z,0.00
2023-11-30T16:47:59.090Z,0.00
2023-11-30T16:48:59.078Z,0.00
2023-11-30T16:49:59.016Z,1.00
2023-11-30T16:50:58.958Z,1.00
2023-11-30T16:51:59.999Z,0.00
2023-11-30T16:52:59.010Z,0.00
2023-11-30T16:53:58.976Z,0.00
2023-11-30T16:54:58.978Z,0.00
2023-11-30T16:55:58.966Z,0.00
2023-11-30T16:56:58.948Z,0.00
2023-11-30T16:57:58.954Z,0.00
2023-11-30T16:58:58.947Z,1.00
2023-11-30T16:59:58.855Z,2.00
2023-11-30T17:00:58.949Z,0.00
2023-11-30T17:01:58.934Z,2.00
2023-11-30T17:02:58.927Z,1.00
2023-11-30T17:03:59.016Z,0.00
2023-11-30T17:04:58.949Z,0.00
2023-11-30T17:05:58.947Z,0.00
2023-11-30T17:06:58.992Z,0.00
2023-11-30T17:07:58.902Z,0.00
2023-11-30T17:08:58.900Z,0.00
2023-11-30T17:09:58.952Z,1.00
2023-11-30T17:10:58.822Z,0.00
2023-11-30T17:11:58.786Z,0.00
2023-11-30T17:12:58.916Z,0.00
2023-11-30T17:13:58.725Z,2.00
2023-11-30T17:14:58.724Z,1.00
2023-11-30T17:15:58.776Z,1.00
2023-11-30T17:16:59.562Z,2.00
2023-11-30T17:17:58.748Z,0.00
2023-11-30T17:18:58.752Z,0.00
2023-11-30T17:19:58.742Z,0.00
2023-11-30T17:20:58.707Z,0.00
2023-11-30T17:21:58.735Z,0.00
2023-11-30T17:22:58.671Z,0.00
2023-11-30T17:23:58.668Z,0.00
2023-11-30T17:24:58.692Z,0.00
2023-11-30T17:25:58.895Z,0.00
2023-11-30T17:26:58.639Z,0.00
2023-11-30T17:27:58.647Z,0.00
2023-11-30T17:28:58.624Z,0.00
2023-11-30T17:29:58.605Z,0.00
2023-11-30T17:30:59.432Z,0.00
2023-11-30T17:31:58.570Z,0.00
2023-11-30T17:32:58.653Z,0.00
2023-11-30T17:33:58.704Z,2.00
2023-11-30T17:34:58.707Z,1.00
2023-11-30T17:35:58.548Z,0.00
2023-11-30T17:36:58.529Z,0.00
2023-11-30T17:37:58.531Z,0.00
2023-11-30T17:38:58.509Z,0.00
2023-11-30T17:39:58.509Z,0.00
2023-11-30T17:40:58.489Z,0.00
2023-11-30T17:41:58.471Z,0.00
2023-11-30T17:42:58.485Z,0.00
2023-11-30T17:43:58.473Z,0.00
2023-11-30T17:44:58.492Z,0.00
2023-11-30T17:45:58.515Z,0.00
2023-11-30T17:46:58.435Z,0.00
2023-11-30T17:47:58.476Z,0.00
2023-11-30T17:48:58.381Z,2.00
2023-11-30T17:49:58.869Z,1.00
2023-11-30T17:50:58.443Z,0.00
2023-11-30T17:51:58.411Z,0.00
2023-11-30T17:52:58.379Z,0.00
2023-11-30T17:53:58.350Z,0.00
2023-11-30T17:54:58.531Z,0.00
2023-11-30T17:55:58.325Z,0.00
2023-11-30T17:56:58.330Z,0.00
2023-11-30T17:57:58.335Z,0.00
2023-11-30T17:58:58.287Z,0.00
2023-11-30T17:59:58.270Z,0.00
2023-11-30T18:00:58.385Z,0.00
2023-11-30T18:01:58.328Z,0.00
2023-11-30T18:02:58.250Z,0.00
2023-11-30T18:03:58.358Z,1.00
2023-11-30T18:04:58.216Z,0.00
2023-11-30T18:05:58.229Z,0.00
2023-11-30T18:06:58.248Z,0.00
2023-11-30T18:07:58.251Z,0.00
2023-11-30T18:08:58.194Z,0.00
2023-11-30T18:09:58.236Z,0.00
2023-11-30T18:10:58.247Z,0.00
2023-11-30T18:11:58.237Z,0.00
2023-11-30T18:12:58.136Z,0.00
2023-11-30T18:13:58.246Z,0.00
2023-11-30T18:14:58.132Z,0.00
2023-11-30T18:15:59.290Z,0.00
2023-11-30T18:16:58.150Z,0.00
2023-11-30T18:17:58.129Z,0.00
2023-11-30T18:18:58.151Z,0.00
2023-11-30T18:19:58.098Z,0.00
2023-11-30T18:20:58.098Z,0.00
2023-11-30T18:21:58.092Z,0.00
2023-11-30T18:22:58.069Z,0.00
2023-11-30T18:23:58.042Z,0.00
2023-11-30T18:24:58.078Z,0.00
2023-11-30T18:25:58.030Z,0.00
2023-11-30T18:26:57.999Z,0.00
2023-11-30T18:27:58.017Z,0.00
2023-11-30T18:28:57.985Z,0.00
2023-11-30T18:29:58.025Z,0.00
2023-11-30T18:31:08.243Z,0.00
2023-11-30T18:31:58.032Z,0.00
2023-11-30T18:32:57.977Z,0.00
2023-11-30T18:33:57.995Z,0.00
2023-11-30T18:34:59.476Z,0.00
2023-11-30T18:35:57.912Z,0.00
2023-11-30T18:36:58.013Z,0.00
2023-11-30T18:37:59.943Z,0.00
2023-11-30T18:38:57.827Z,1.00
2023-11-30T18:39:57.911Z,0.00
2023-11-30T18:40:57.905Z,0.00
2023-11-30T18:41:57.858Z,0.00
2023-11-30T18:42:57.849Z,0.00
2023-11-30T18:43:57.850Z,0.00
2023-11-30T18:44:57.833Z,0.00
2023-11-30T18:45:57.868Z,0.00
2023-11-30T18:46:57.842Z,0.00
2023-11-30T18:47:57.824Z,0.00
2023-11-30T18:48:57.798Z,0.00
2023-11-30T18:49:57.781Z,0.00
2023-11-30T18:50:57.745Z,0.00
2023-11-30T18:51:57.816Z,0.00
2023-11-30T18:52:57.739Z,0.00
2023-11-30T18:53:57.751Z,0.00
2023-11-30T18:54:57.746Z,0.00
2023-11-30T18:55:57.717Z,0.00
2023-11-30T18:56:57.712Z,0.00
2023-11-30T18:57:57.725Z,0.00
2023-11-30T18:58:57.662Z,0.00
2023-11-30T18:59:57.616Z,1.00
2023-11-30T19:00:57.630Z,1.00
2023-11-30T19:01:57.811Z,0.00
2023-11-30T19:02:57.665Z,0.00
2023-11-30T19:03:57.607Z,1.00
2023-11-30T19:04:57.623Z,0.00
2023-11-30T19:05:57.638Z,0.00
2023-11-30T19:06:57.635Z,0.00
2023-11-30T19:07:57.570Z,1.00
2023-11-30T19:08:57.533Z,4.00
2023-11-30T19:09:57.590Z,11.00
2023-11-30T19:10:57.531Z,1.00
2023-11-30T19:11:57.537Z,0.00
2023-11-30T19:12:57.554Z,0.00
2023-11-30T19:13:57.482Z,1.00
2023-11-30T19:14:57.493Z,1.00
2023-11-30T19:15:57.577Z,0.00
2023-11-30T19:16:57.485Z,0.00
2023-11-30T19:17:57.565Z,0.00
2023-11-30T19:18:57.761Z,0.00
2023-11-30T19:19:57.478Z,0.00
2023-11-30T19:20:57.436Z,0.00
2023-11-30T19:21:57.445Z,0.00
2023-11-30T19:22:57.431Z,0.00
2023-11-30T19:23:57.402Z,0.00
2023-11-30T19:24:57.467Z,0.00
2023-11-30T19:25:57.377Z,0.00
2023-11-30T19:26:57.402Z,0.00
2023-11-30T19:27:57.548Z,0.00
2023-11-30T19:28:57.371Z,0.00
2023-11-30T19:29:57.378Z,0.00
2023-11-30T19:30:57.630Z,0.00
2023-11-30T19:31:57.337Z,0.00
2023-11-30T19:32:57.413Z,0.00
2023-11-30T19:33:57.333Z,0.00
2023-11-30T19:34:57.327Z,0.00
2023-11-30T19:35:57.310Z,0.00
2023-11-30T19:36:57.364Z,0.00
2023-11-30T19:37:57.270Z,0.00
2023-11-30T19:38:57.267Z,0.00
2023-11-30T19:39:59.042Z,0.00
2023-11-30T19:40:57.445Z,0.00
2023-11-30T19:41:57.293Z,0.00
2023-11-30T19:42:57.230Z,0.00
2023-11-30T19:43:57.205Z,0.00
2023-11-30T19:44:57.199Z,0.00
2023-11-30T19:45:58.344Z,0.00
2023-11-30T19:46:57.231Z,0.00
2023-11-30T19:47:57.217Z,0.00
2023-11-30T19:48:57.166Z,0.00
2023-11-30T19:49:57.160Z,0.00
2023-11-30T19:50:57.120Z,0.00
2023-11-30T19:51:57.178Z,0.00
2023-11-30T19:52:57.095Z,0.00
2023-11-30T19:53:57.113Z,0.00
2023-11-30T19:54:57.172Z,0.00
2023-11-30T19:55:57.081Z,0.00
2023-11-30T19:56:57.065Z,0.00
2023-11-30T19:57:57.130Z,0.00
2023-11-30T19:58:57.048Z,0.00
2023-11-30T19:59:57.036Z,0.00
2023-11-30T20:00:57.061Z,0.00
2023-11-30T20:01:57.069Z,0.00
2023-11-30T20:02:56.984Z,0.00
2023-11-30T20:03:57.099Z,0.00
2023-11-30T20:04:56.997Z,0.00
2023-11-30T20:05:56.975Z,0.00
2023-11-30T20:06:57.018Z,0.00
2023-11-30T20:07:56.944Z,0.00
2023-11-30T20:08:56.949Z,0.00
2023-11-30T20:09:57.011Z,0.00
2023-11-30T20:10:56.910Z,0.00
2023-11-30T20:11:56.908Z,0.00
2023-11-30T20:12:56.926Z,0.00
2023-11-30T20:13:56.904Z,0.00
2023-11-30T20:14:56.987Z,0.00
2023-11-30T20:15:56.908Z,0.00
2023-11-30T20:16:56.881Z,0.00
2023-11-30T20:17:56.868Z,0.00
2023-11-30T20:18:56.937Z,0.00
2023-11-30T20:19:56.820Z,0.00
2023-11-30T20:20:56.816Z,0.00
2023-11-30T20:21:56.853Z,0.00
2023-11-30T20:22:56.807Z,0.00
2023-11-30T20:23:56.783Z,0.00
2023-11-30T20:24:56.776Z,0.00
2023-11-30T20:25:56.778Z,0.00
2023-11-30T20:26:56.736Z,0.00
2023-11-30T20:27:56.810Z,0.00
2023-11-30T20:28:56.716Z,0.00
2023-11-30T20:29:56.715Z,0.00
2023-11-30T20:30:56.768Z,0.00
2023-11-30T20:31:56.696Z,0.00
2023-11-30T20:32:56.760Z,0.00
2023-11-30T20:33:56.738Z,0.00
2023-11-30T20:34:56.663Z,0.00
2023-11-30T20:35:56.674Z,0.00
2023-11-30T20:36:56.716Z,0.00
2023-11-30T20:37:56.654Z,0.00
2023-11-30T20:38:56.635Z,0.00
2023-11-30T20:39:56.653Z,0.00
2023-11-30T20:40:56.632Z,0.00
2023-11-30T20:41:56.604Z,0.00
2023-11-30T20:42:56.663Z,0.00
2023-11-30T20:43:56.598Z,0.00
2023-11-30T20:44:56.584Z,0.00
2023-11-30T20:45:56.583Z,0.00
2023-11-30T20:46:56.604Z,0.00
2023-11-30T20:47:56.641Z,0.00
2023-11-30T20:48:56.559Z,0.00
2023-11-30T20:49:56.511Z,0.00
2023-11-30T20:50:56.509Z,0.00
2023-11-30T20:51:56.485Z,1.00
2023-11-30T20:52:56.492Z,0.00
2023-11-30T20:53:56.462Z,0.00
2023-11-30T20:54:56.516Z,0.00
2023-11-30T20:55:56.436Z,0.00
2023-11-30T20:56:56.467Z,0.00
2023-11-30T20:57:56.578Z,0.00
2023-11-30T20:58:56.490Z,0.00
2023-11-30T20:59:56.407Z,0.00
2023-11-30T21:00:56.507Z,0.00
2023-11-30T21:01:56.581Z,0.00
2023-11-30T21:02:56.509Z,0.00
2023-11-30T21:03:56.487Z,0.00
2023-11-30T21:04:56.374Z,0.00
2023-11-30T21:05:56.337Z,0.00
2023-11-30T21:06:56.366Z,0.00
2023-11-30T21:07:56.330Z,0.00
2023-11-30T21:08:56.338Z,0.00
2023-11-30T21:09:56.343Z,0.00
2023-11-30T21:10:56.301Z,0.00
2023-11-30T21:11:56.985Z,0.00
2023-11-30T21:12:56.359Z,0.00
2023-11-30T21:13:56.253Z,0.00
2023-11-30T21:14:56.266Z,0.00
2023-11-30T21:15:56.306Z,0.00
2023-11-30T21:16:56.273Z,0.00
2023-11-30T21:17:56.253Z,0.00
2023-11-30T21:18:56.222Z,0.00
2023-11-30T21:19:56.208Z,0.00
2023-11-30T21:20:56.263Z,0.00
2023-11-30T21:21:56.218Z,0.00
2023-11-30T21:22:56.170Z,0.00
2023-11-30T21:23:56.157Z,0.00
2023-11-30T21:24:56.213Z,0.00
2023-11-30T21:25:56.170Z,0.00
2023-11-30T21:26:56.134Z,0.00
2023-11-30T21:27:56.138Z,0.00
2023-11-30T21:28:56.106Z,0.00
2023-11-30T21:29:56.098Z,0.00
2023-11-30T21:30:56.206Z,0.00
2023-11-30T21:31:56.117Z,0.00
2023-11-30T21:32:56.102Z,0.00
2023-11-30T21:33:56.095Z,0.00
2023-11-30T21:34:56.047Z,0.00
2023-11-30T21:35:56.049Z,0.00
2023-11-30T21:36:56.044Z,0.00
2023-11-30T21:37:56.020Z,0.00
2023-11-30T21:38:55.992Z,0.00
2023-11-30T21:39:56.005Z,0.00
2023-11-30T21:40:56.002Z,0.00
2023-11-30T21:41:56.000Z,0.00
2023-11-30T21:42:55.992Z,0.00
2023-11-30T21:43:55.946Z,0.00